Time;durP1;ratioP1;P1;durP2;ratioP2;P2;SDS_P1;SDS_P2;PMS_P1;PMS_P2;Temp;Humidity;BMP_temperature;BMP_pressure;BME280_temperature;BME280_humidity;BME280_pressure;Samples;Min_cycle;Max_cycle;Signal;HPM_P1;HPM_P2
2023/07/11 00:00:57;;;;;;;5.50;2.20;;;;;;;16.76;100.00;99387.73;104454;1256;69460;-57
2023/07/11 00:03:24;;;;;;;2.40;2.20;;;;;;;16.74;100.00;99388.77;104283;1274;73395;-57
2023/07/11 00:06:00;;;;;;;2.70;2.50;;;;;;;16.72;100.00;99392.79;104326;1265;60504;-57
2023/07/11 00:08:27;;;;;;;2.70;2.50;;;;;;;16.69;100.00;99391.23;106290;1254;60472;-57
2023/07/11 00:10:54;;;;;;;2.90;2.50;;;;;;;16.66;100.00;99390.55;105275;1257;73856;-58
2023/07/11 00:13:22;;;;;;;2.80;2.40;;;;;;;16.60;100.00;99393.62;107073;1254;70496;-58
2023/07/11 00:15:57;;;;;;;3.10;2.30;;;;;;;16.59;100.00;99392.86;107445;1256;72659;-57
2023/07/11 00:18:24;;;;;;;2.60;2.20;;;;;;;16.55;100.00;99393.45;104620;1270;61847;-58
2023/07/11 00:20:51;;;;;;;4.30;2.80;;;;;;;16.55;100.00;99395.23;104381;1260;60143;-57
2023/07/11 00:23:18;;;;;;;3.10;2.70;;;;;;;16.55;100.00;99394.35;104335;1259;73973;-57
2023/07/11 00:25:45;;;;;;;3.10;2.40;;;;;;;16.53;100.00;99397.31;104978;1257;69182;-57
2023/07/11 00:28:11;;;;;;;2.40;2.20;;;;;;;16.53;100.00;99399.84;104446;1269;73349;-57
2023/07/11 00:30:41;;;;;;;3.40;2.50;;;;;;;16.51;100.00;99396.45;104407;1270;61548;-56
2023/07/11 00:33:08;;;;;;;5.00;2.80;;;;;;;16.48;100.00;99394.67;104260;1274;60543;-57
2023/07/11 00:35:37;;;;;;;2.60;2.40;;;;;;;16.45;100.00;99396.48;104293;1264;74388;-57
2023/07/11 00:38:05;;;;;;;2.20;2.10;;;;;;;16.42;100.00;99393.00;104286;1266;72862;-56
2023/07/11 00:40:39;;;;;;;5.90;2.40;;;;;;;16.39;100.00;99394.45;104483;1257;73158;-57
2023/07/11 00:43:10;;;;;;;2.50;2.20;;;;;;;16.37;100.00;99398.15;104351;1264;62174;-57
2023/07/11 00:46:09;;;;;;;2.40;2.20;;;;;;;16.37;100.00;99395.61;104322;1260;60559;-57
2023/07/11 00:48:38;;;;;;;2.70;2.40;;;;;;;16.37;100.00;99399.73;104449;1257;74256;-57
2023/07/11 00:51:06;;;;;;;3.30;2.80;;;;;;;16.36;100.00;99394.66;104328;1269;70060;-57
2023/07/11 00:53:33;;;;;;;;;;;;;;;16.35;100.00;99390.13;104508;1254;73175;-57
2023/07/11 00:56:03;;;;;;;2.50;2.20;;;;;;;16.31;100.00;99391.44;104269;1267;61786;-58
2023/07/11 00:58:31;;;;;;;2.40;2.20;;;;;;;16.26;100.00;99391.11;108410;1253;61293;-58
2023/07/11 01:00:59;;;;;;;2.80;2.30;;;;;;;16.26;100.00;99390.56;105714;1259;74456;-57
2023/07/11 01:03:27;;;;;;;2.60;2.40;;;;;;;16.27;100.00;99390.54;104435;1254;70520;-57
2023/07/11 01:05:55;;;;;;;4.20;3.10;;;;;;;16.23;100.00;99384.61;104285;1261;73039;-59
2023/07/11 01:08:25;;;;;;;3.10;2.30;;;;;;;16.21;100.00;99388.82;104479;1266;60680;-58
2023/07/11 01:10:52;;;;;;;2.70;2.50;;;;;;;16.19;100.00;99388.63;104353;1258;60454;-57
2023/07/11 01:13:19;;;;;;;3.30;3.00;;;;;;;16.17;100.00;99386.11;104328;1257;73797;-58
2023/07/11 01:15:45;;;;;;;2.40;2.20;;;;;;;16.11;100.00;99386.98;104290;1270;70234;-58
2023/07/11 01:18:12;;;;;;;3.50;2.50;;;;;;;16.09;100.00;99386.44;104366;1260;73179;-58
2023/07/11 01:20:40;;;;;;;4.00;2.30;;;;;;;16.07;100.00;99383.77;104342;1260;61747;-57
2023/07/11 01:23:07;;;;;;;2.90;2.40;;;;;;;16.05;100.00;99383.94;104358;1254;60077;-58
2023/07/11 01:25:35;;;;;;;3.20;2.60;;;;;;;16.03;100.00;99383.56;104627;1259;74084;-58
2023/07/11 01:28:01;;;;;;;;;;;;;;;16.01;100.00;99383.17;104330;1269;69811;-58
2023/07/11 01:30:29;;;;;;;4.90;2.60;;;;;;;15.95;100.00;99390.05;104253;1269;72453;-58
2023/07/11 01:32:58;;;;;;;3.50;2.50;;;;;;;15.91;100.00;99389.96;104314;1259;61378;-57
2023/07/11 01:35:25;;;;;;;2.90;2.50;;;;;;;15.89;100.00;99391.73;104341;1261;60558;-57
2023/07/11 01:37:52;;;;;;;3.80;3.00;;;;;;;15.86;100.00;99394.44;104449;1260;73883;-58
2023/07/11 01:40:19;;;;;;;5.50;2.90;;;;;;;15.83;100.00;99391.64;104357;1267;68640;-58
2023/07/11 01:42:46;;;;;;;2.80;2.60;;;;;;;15.82;100.00;99390.46;104703;1254;72384;-58
2023/07/11 01:45:13;;;;;;;2.80;2.60;;;;;;;15.83;100.00;99388.79;104318;1267;61818;-58
2023/07/11 01:47:40;;;;;;;3.30;2.80;;;;;;;15.82;100.00;99388.85;104457;1264;60581;-58
2023/07/11 01:50:08;;;;;;;2.90;2.20;;;;;;;15.80;100.00;99386.16;104589;1254;73837;-59
2023/07/11 01:52:35;;;;;;;3.50;2.50;;;;;;;15.79;100.00;99391.55;104353;1258;69594;-58
2023/07/11 01:55:03;;;;;;;5.40;2.60;;;;;;;15.80;100.00;99388.66;104427;1257;72969;-57
2023/07/11 01:57:31;;;;;;;3.40;2.40;;;;;;;15.78;100.00;99385.92;104357;1257;61458;-57
2023/07/11 01:59:58;;;;;;;4.10;2.80;;;;;;;15.80;100.00;99383.50;104274;1258;60520;-57
2023/07/11 02:02:25;;;;;;;3.30;2.60;;;;;;;15.79;100.00;99380.41;104311;1269;73857;-59
2023/07/11 02:04:52;;;;;;;2.90;2.60;;;;;;;15.75;100.00;99380.45;104306;1257;69440;-58
2023/07/11 02:07:19;;;;;;;2.70;2.50;;;;;;;15.75;100.00;99380.30;104380;1255;72776;-58
2023/07/11 02:09:47;;;;;;;3.30;2.90;;;;;;;15.73;100.00;99378.11;104380;1259;61551;-59
2023/07/11 02:12:14;;;;;;;3.80;2.60;;;;;;;15.72;100.00;99374.99;106051;1255;60549;-59
2023/07/11 02:14:40;;;;;;;2.50;2.30;;;;;;;15.70;100.00;99376.02;104402;1267;74520;-58
2023/07/11 02:17:08;;;;;;;3.70;2.70;;;;;;;15.69;100.00;99381.37;108019;1254;69417;-59
2023/07/11 02:19:36;;;;;;;4.70;2.70;;;;;;;15.71;100.00;99380.73;104727;1254;72338;-58
2023/07/11 02:22:03;;;;;;;3.10;2.80;;;;;;;15.71;100.00;99382.88;104314;1258;61773;-60
2023/07/11 02:24:30;;;;;;;3.20;2.90;;;;;;;15.71;100.00;99388.67;104386;1260;60559;-58
2023/07/11 02:26:57;;;;;;;4.60;2.70;;;;;;;15.72;100.00;99387.36;104853;1259;73407;-58
2023/07/11 02:29:24;;;;;;;4.00;2.80;;;;;;;15.71;100.00;99386.20;104625;1258;69070;-60
2023/07/11 02:31:51;;;;;;;3.20;2.90;;;;;;;15.72;100.00;99383.86;104257;1258;73328;-57
2023/07/11 02:34:19;;;;;;;3.10;2.90;;;;;;;15.71;100.00;99385.98;104379;1266;61774;-58
2023/07/11 02:36:46;;;;;;;3.00;2.80;;;;;;;15.69;100.00;99383.85;104369;1257;60516;-57
2023/07/11 02:39:14;;;;;;;3.60;3.10;;;;;;;15.67;100.00;99385.10;104391;1270;73746;-57
2023/07/11 02:41:41;;;;;;;4.50;2.90;;;;;;;15.68;100.00;99389.44;104236;1257;69950;-58
2023/07/11 02:44:07;;;;;;;3.50;3.20;;;;;;;15.66;100.00;99391.31;104346;1270;72911;-57
2023/07/11 02:46:34;;;;;;;5.80;3.30;;;;;;;15.64;100.00;99394.11;104429;1267;61636;-58
2023/07/11 02:49:02;;;;;;;3.40;3.10;;;;;;;15.63;100.00;99389.41;104405;1266;60559;-58
2023/07/11 02:51:29;;;;;;;3.80;3.50;;;;;;;15.61;100.00;99386.34;104340;1260;72842;-57
2023/07/11 02:53:56;;;;;;;3.70;3.30;;;;;;;15.64;100.00;99384.55;104372;1267;68568;-58
2023/07/11 02:56:22;;;;;;;3.10;2.80;;;;;;;15.69;100.00;99389.85;104391;1257;71413;-58
2023/07/11 02:58:52;;;;;;;4.10;3.30;;;;;;;15.77;100.00;99389.36;105123;1257;61635;-57
2023/07/11 03:01:19;;;;;;;3.30;3.00;;;;;;;15.79;100.00;99388.92;108436;1254;59882;-57
2023/07/11 03:03:46;;;;;;;2.90;2.70;;;;;;;15.82;100.00;99383.56;107165;1254;73626;-58
2023/07/11 03:06:13;;;;;;;3.50;3.20;;;;;;;15.84;100.00;99382.38;104834;1267;70001;-57
2023/07/11 03:08:40;;;;;;;5.60;3.60;;;;;;;15.85;100.00;99385.10;104549;1257;72773;-57
2023/07/11 03:11:07;;;;;;;4.50;3.20;;;;;;;15.87;100.00;99386.93;104578;1266;61677;-56
2023/07/11 03:13:36;;;;;;;4.40;3.10;;;;;;;15.90;100.00;99386.91;104304;1270;61150;-57
2023/07/11 03:16:03;;;;;;;3.40;3.10;;;;;;;15.96;100.00;99393.04;104368;1254;74557;-57
2023/07/11 03:18:31;;;;;;;3.30;3.00;;;;;;;16.01;100.00;99388.81;104362;1257;68458;-57
2023/07/11 03:20:59;;;;;;;5.80;3.10;;;;;;;16.04;100.00;99388.41;104410;1254;72300;-57
2023/07/11 03:23:26;;;;;;;3.30;3.00;;;;;;;16.08;100.00;99390.26;104470;1255;61550;-57
2023/07/11 03:25:53;;;;;;;4.00;3.40;;;;;;;16.12;100.00;99387.99;104284;1266;60537;-57
2023/07/11 03:28:20;;;;;;;3.70;3.30;;;;;;;16.17;100.00;99390.50;104343;1257;74174;-57
2023/07/11 03:30:47;;;;;;;5.00;3.80;;;;;;;16.21;100.00;99396.63;104506;1265;70212;-57
2023/07/11 03:33:14;;;;;;;3.60;3.20;;;;;;;16.23;100.00;99389.69;104481;1259;72644;-57
2023/07/11 03:35:47;;;;;;;3.80;3.20;;;;;;;16.29;100.00;99387.70;104322;1260;61661;-57
2023/07/11 03:38:13;;;;;;;3.80;3.50;;;;;;;16.34;100.00;99389.11;104347;1266;59821;-57
2023/07/11 03:40:40;;;;;;;3.60;3.30;;;;;;;16.40;100.00;99385.91;104364;1257;73241;-57
2023/07/11 03:43:07;;;;;;;4.80;3.40;;;;;;;16.44;100.00;99387.02;104363;1276;70405;-59
2023/07/11 03:45:36;;;;;;;4.50;3.90;;;;;;;16.52;100.00;99381.45;104325;1267;73754;-58
2023/07/11 03:48:04;;;;;;;5.20;3.40;;;;;;;16.61;100.00;99377.70;104438;1259;61716;-57
2023/07/11 03:50:31;;;;;;;4.10;3.80;;;;;;;16.69;100.00;99376.55;104666;1268;59960;-56
2023/07/11 03:52:57;;;;;;;4.10;3.80;;;;;;;16.75;100.00;99376.51;104355;1261;72644;-56
2023/07/11 03:55:25;;;;;;;3.80;3.40;;;;;;;16.79;100.00;99373.02;104473;1257;69187;-56
2023/07/11 04:00:25;;;;;;;7.30;3.70;;;;;;;16.62;100.00;99360.61;101226;1297;614381;-54
2023/07/11 04:02:52;;;;;;;4.20;3.90;;;;;;;17.00;100.00;99359.30;103522;1273;61638;-54
2023/07/11 04:05:19;;;;;;;3.80;3.50;;;;;;;17.10;100.00;99359.79;103540;1282;59804;-55
2023/07/11 04:07:46;;;;;;;6.00;3.50;;;;;;;17.17;100.00;99367.08;103569;1267;72776;-55
2023/07/11 04:10:13;;;;;;;6.10;3.90;;;;;;;17.25;100.00;99369.30;103557;1287;69875;-54
2023/07/11 04:12:40;;;;;;;4.20;3.90;;;;;;;17.28;100.00;99375.61;103446;1267;173346;-58
2023/07/11 04:15:07;;;;;;;4.70;3.60;;;;;;;17.36;100.00;99378.77;103871;1284;61515;-55
2023/07/11 04:17:35;;;;;;;9.50;3.60;;;;;;;17.43;100.00;99381.96;106987;1263;60054;-56
2023/07/11 04:20:02;;;;;;;4.80;3.80;;;;;;;17.48;100.00;99390.59;105009;1268;72129;-56
2023/07/11 04:22:29;;;;;;;5.30;3.90;;;;;;;17.48;100.00;99397.73;103943;1269;69897;-55
2023/07/11 04:24:56;;;;;;;4.90;4.40;;;;;;;17.54;100.00;99400.23;103864;1270;71821;-54
2023/07/11 04:27:24;;;;;;;5.30;3.90;;;;;;;17.52;100.00;99405.00;103972;1268;61354;-55
2023/07/11 04:29:51;;;;;;;5.60;4.10;;;;;;;17.58;100.00;99401.22;103828;1264;60000;-55
2023/07/11 04:32:19;;;;;;;4.10;3.70;;;;;;;17.61;100.00;99403.27;103925;1268;73649;-54
2023/07/11 04:34:45;;;;;;;4.20;3.80;;;;;;;17.67;100.00;99404.19;103846;1270;70042;-54
2023/07/11 04:37:12;;;;;;;4.10;3.80;;;;;;;17.81;100.00;99400.52;103878;1264;71157;-54
2023/07/11 04:39:39;;;;;;;4.00;3.60;;;;;;;17.88;100.00;99401.24;104136;1264;61583;-54
2023/07/11 04:42:06;;;;;;;6.00;3.90;;;;;;;17.98;100.00;99401.21;104082;1260;60015;-55
2023/07/11 04:44:33;;;;;;;5.20;3.30;;;;;;;18.03;100.00;99397.80;104285;1257;73327;-54
2023/07/11 04:47:00;;;;;;;3.70;3.40;;;;;;;18.14;100.00;99392.48;104346;1261;68190;-54
2023/07/11 04:49:27;;;;;;;4.50;4.20;;;;;;;18.18;100.00;99395.71;104243;1260;72884;-55
2023/07/11 04:51:55;;;;;;;5.30;4.10;;;;;;;18.22;100.00;99391.90;104355;1261;61364;-54
2023/07/11 04:54:22;;;;;;;;;;;;;;;18.25;100.00;99389.82;104311;1266;59864;-55
2023/07/11 04:56:56;;;;;;;3.40;3.10;;;;;;;18.32;100.00;99389.45;104438;1258;73519;-54
2023/07/11 04:59:24;;;;;;;5.10;3.70;;;;;;;18.40;100.00;99384.95;104859;1257;70303;-55
2023/07/11 05:01:51;;;;;;;3.90;3.60;;;;;;;18.44;100.00;99381.94;104587;1257;71611;-56
2023/07/11 05:04:18;;;;;;;5.20;4.10;;;;;;;18.52;100.00;99383.09;106738;1256;61433;-54
2023/07/11 05:06:47;;;;;;;6.90;4.30;;;;;;;18.55;100.00;99379.46;107949;1256;60012;-55
2023/07/11 05:09:16;;;;;;;4.90;4.00;;;;;;;18.58;100.00;99377.65;104708;1257;73468;-53
2023/07/11 05:11:44;;;;;;;3.80;3.50;;;;;;;18.65;100.00;99373.21;104697;1258;69926;-56
2023/07/11 05:14:11;;;;;;;3.90;3.50;;;;;;;18.76;100.00;99376.20;104177;1261;73099;-56
2023/07/11 05:16:40;;;;;;;3.60;3.30;;;;;;;18.87;100.00;99375.76;104110;1261;61507;-56
2023/07/11 05:19:07;;;;;;;3.70;3.40;;;;;;;18.98;100.00;99379.27;104147;1270;60214;-56
2023/07/11 05:21:35;;;;;;;4.80;3.70;;;;;;;19.06;100.00;99378.42;104241;1258;73282;-56
2023/07/11 05:24:01;;;;;;;7.40;4.10;;;;;;;19.11;100.00;99382.99;104205;1266;69162;-56
2023/07/11 05:26:29;;;;;;;5.10;3.50;;;;;;;19.15;100.00;99384.80;104149;1279;73047;-56
2023/07/11 05:29:00;;;;;;;3.90;3.60;;;;;;;19.21;100.00;99382.17;104149;1259;60608;-57
2023/07/11 05:31:28;;;;;;;6.10;3.50;;;;;;;19.27;100.00;99382.02;104157;1273;59877;-56
2023/07/11 05:33:57;;;;;;;4.40;3.40;;;;;;;19.32;100.00;99376.98;104261;1260;73892;-56
2023/07/11 05:36:34;;;;;;;5.90;4.30;;;;;;;19.39;100.00;99372.86;104255;1273;69285;-57
2023/07/11 05:39:03;;;;;;;6.70;3.50;;;;;;;19.46;100.00;99373.91;104295;1257;72965;-57
2023/07/11 05:41:31;;;;;;;3.20;3.00;;;;;;;19.54;100.00;99372.45;104149;1261;61847;-57
2023/07/11 05:43:58;;;;;;;4.00;3.30;;;;;;;19.60;100.00;99367.73;104176;1261;59833;-56
2023/07/11 05:46:25;;;;;;;3.80;3.10;;;;;;;19.69;100.00;99369.46;104289;1260;72931;-57
2023/07/11 05:48:53;;;;;;;3.50;3.20;;;;;;;19.78;100.00;99366.55;104155;1263;69366;-57
2023/07/11 05:51:21;;;;;;;4.00;3.30;;;;;;;19.90;100.00;99362.75;104142;1260;73089;-55
2023/07/11 05:53:48;;;;;;;3.20;2.80;;;;;;;19.98;100.00;99357.23;104266;1258;61850;-55
2023/07/11 05:56:18;;;;;;;3.70;3.00;;;;;;;20.07;100.00;99358.06;104284;1270;59933;-55
2023/07/11 05:58:46;;;;;;;3.00;2.50;;;;;;;20.13;100.00;99356.59;104166;1267;73264;-55
2023/07/11 06:01:17;;;;;;;3.40;3.10;;;;;;;20.23;100.00;99355.58;104204;1260;70561;-56
2023/07/11 06:03:47;;;;;;;3.90;2.80;;;;;;;20.29;100.00;99350.40;104217;1257;72896;-57
2023/07/11 06:06:18;;;;;;;3.90;3.30;;;;;;;20.39;100.00;99347.58;104101;1273;61485;-55
2023/07/11 06:08:45;;;;;;;6.00;3.00;;;;;;;20.50;100.00;99346.47;104251;1264;60690;-56
2023/07/11 06:11:12;;;;;;;3.10;2.70;;;;;;;20.56;100.00;99348.88;104161;1259;73210;-56
2023/07/11 06:13:39;;;;;;;5.60;2.90;;;;;;;20.66;100.00;99348.06;105482;1256;69232;-56
2023/07/11 06:16:15;;;;;;;2.80;2.60;;;;;;;20.77;100.00;99346.23;104635;1258;72561;-56
2023/07/11 06:18:42;;;;;;;3.70;2.50;;;;;;;20.85;100.00;99346.20;107764;1257;61677;-56
2023/07/11 06:21:10;;;;;;;2.60;2.40;;;;;;;20.89;100.00;99344.35;106290;1257;59815;-56
2023/07/11 06:23:37;;;;;;;3.30;2.70;;;;;;;20.96;100.00;99340.26;104722;1258;73913;-56
2023/07/11 06:26:04;;;;;;;3.30;2.50;;;;;;;21.03;100.00;99338.12;104342;1268;69915;-56
2023/07/11 06:28:34;;;;;;;2.80;2.50;;;;;;;21.13;100.00;99332.23;104635;1260;72364;-57
2023/07/11 06:31:05;;;;;;;5.40;2.30;;;;;;;21.23;100.00;99334.89;104282;1274;60458;-56
2023/07/11 06:33:34;;;;;;;3.30;2.40;;;;;;;21.28;100.00;99332.46;104318;1258;60124;-57
2023/07/11 06:36:02;;;;;;;5.60;2.20;;;;;;;21.35;100.00;99334.70;104217;1261;72684;-56
2023/07/11 06:38:29;;;;;;;3.60;2.30;;;;;;;21.46;100.00;99332.24;104082;1280;70033;-57
2023/07/11 06:40:57;;;;;;;4.40;2.50;;;;;;;21.51;100.00;99332.89;104134;1258;72389;-57
2023/07/11 06:43:25;;;;;;;2.40;2.20;;;;;;;21.56;100.00;99332.74;104187;1263;62249;-58
2023/07/11 06:45:56;;;;;;;2.80;2.30;;;;;;;21.57;100.00;99330.18;104084;1260;59996;-56
2023/07/11 06:48:25;;;;;;;2.60;2.00;;;;;;;21.60;100.00;99332.53;104155;1260;72340;-56
2023/07/11 06:50:53;;;;;;;3.00;2.20;;;;;;;21.60;100.00;99332.20;104189;1257;69354;-56
2023/07/11 06:53:21;;;;;;;2.80;2.20;;;;;;;21.63;100.00;99333.89;104295;1271;72803;-56
2023/07/11 06:55:49;;;;;;;5.90;1.90;;;;;;;21.68;100.00;99329.34;104291;1261;61584;-57
2023/07/11 06:58:16;;;;;;;2.10;1.90;;;;;;;21.73;100.00;99327.01;104336;1259;59733;-56
2023/07/11 07:00:43;;;;;;;6.90;2.40;;;;;;;21.76;100.00;99328.20;104198;1267;73343;-56
2023/07/11 07:03:11;;;;;;;3.30;1.70;;;;;;;21.81;100.00;99320.42;104387;1257;68887;-56
2023/07/11 07:05:46;;;;;;;2.00;1.90;;;;;;;21.89;100.00;99319.01;104553;1257;73295;-56
2023/07/11 07:08:14;;;;;;;2.90;2.00;;;;;;;22.04;100.00;99317.89;106788;1257;61896;-56
2023/07/11 07:10:45;;;;;;;2.80;1.80;;;;;;;22.15;100.00;99314.16;107671;1254;59917;-57
2023/07/11 07:13:12;;;;;;;3.60;1.90;;;;;;;22.22;100.00;99315.30;104630;1259;72832;-56
2023/07/11 07:15:39;;;;;;;1.90;1.80;;;;;;;22.28;100.00;99313.83;104320;1266;69991;-56
2023/07/11 07:18:06;;;;;;;4.20;2.00;;;;;;;22.37;100.00;99311.21;105965;1257;72355;-56
2023/07/11 07:20:33;;;;;;;1.80;1.70;;;;;;;22.48;100.00;99313.65;107995;1256;62181;-57
2023/07/11 07:23:14;;;;;;;2.00;1.80;;;;;;;22.55;100.00;99313.33;104482;1259;60172;-57
2023/07/11 07:25:44;;;;;;;2.20;1.80;;;;;;;22.58;100.00;99313.80;104316;1267;73436;-56
2023/07/11 07:28:12;;;;;;;2.00;1.90;;;;;;;22.59;100.00;99309.42;104681;1254;69874;-56
2023/07/11 07:30:53;;;;;;;2.00;1.80;;;;;;;22.65;100.00;99303.85;104402;1264;73052;-57
2023/07/11 07:33:23;;;;;;;2.70;1.90;;;;;;;22.76;100.00;99300.73;104600;1257;59906;-56
2023/07/11 07:35:57;;;;;;;2.20;2.00;;;;;;;22.90;100.00;99302.20;104366;1255;60002;-57
2023/07/11 07:38:27;;;;;;;1.80;1.60;;;;;;;23.02;100.00;99297.30;104285;1257;73515;-56
2023/07/11 07:40:55;;;;;;;3.70;1.90;;;;;;;23.14;100.00;99300.43;104216;1279;69991;-55
2023/07/11 07:43:22;;;;;;;3.20;2.00;;;;;;;23.28;100.00;99301.62;104333;1256;71428;-57
2023/07/11 07:45:53;;;;;;;2.30;1.70;;;;;;;23.44;100.00;99297.14;104320;1273;59818;-56
2023/07/11 07:48:20;;;;;;;1.90;1.50;;;;;;;23.51;100.00;99299.71;104282;1256;59959;-57
2023/07/11 07:50:47;;;;;;;4.20;2.00;;;;;;;23.47;100.00;99299.77;104331;1272;72995;-56
2023/07/11 07:53:15;;;;;;;2.60;2.00;;;;;;;23.38;100.00;99299.97;104242;1257;70198;-58
2023/07/11 07:55:42;;;;;;;5.60;1.80;;;;;;;23.34;100.00;99302.17;104261;1259;71505;-57
2023/07/11 07:58:10;;;;;;;1.80;1.70;;;;;;;23.29;100.00;99300.62;104311;1257;60208;-57
2023/07/11 08:00:37;;;;;;;1.90;1.80;;;;;;;23.27;100.00;99305.67;104383;1273;59826;-56
2023/07/11 08:03:04;;;;;;;3.40;1.80;;;;;;;23.28;100.00;99304.30;104359;1261;71876;-56
2023/07/11 08:05:32;;;;;;;;;;;;;;;23.37;100.00;99303.43;104350;1272;68412;-57
2023/07/11 08:07:59;;;;;;;2.00;1.90;;;;;;;23.52;100.00;99302.39;104293;1266;72902;-57
2023/07/11 08:10:26;;;;;;;3.00;2.10;;;;;;;23.64;100.00;99301.44;104313;1259;60540;-57
2023/07/11 08:12:54;;;;;;;3.70;2.20;;;;;;;23.74;100.00;99300.20;104324;1257;60434;-56
2023/07/11 08:15:22;;;;;;;2.10;1.90;;;;;;;23.80;99.28;99302.99;104262;1259;74511;-57
2023/07/11 08:17:49;;;;;;;1.90;1.80;;;;;;;23.87;99.17;99300.70;104401;1256;70287;-56
2023/07/11 08:20:16;;;;;;;2.10;2.00;;;;;;;23.91;99.06;99299.00;108089;1256;72399;-57
2023/07/11 08:22:42;;;;;;;2.00;1.90;;;;;;;23.85;99.66;99298.20;106628;1254;60574;-56
2023/07/11 08:25:11;;;;;;;2.10;2.00;;;;;;;23.84;100.00;99300.38;104610;1254;60574;-57
2023/07/11 08:27:39;;;;;;;3.80;1.70;;;;;;;23.92;100.00;99296.91;104462;1254;74154;-57
2023/07/11 08:30:06;;;;;;;4.90;2.10;;;;;;;24.10;99.55;99293.60;104301;1267;68554;-58
2023/07/11 08:32:34;;;;;;;2.90;1.70;;;;;;;24.20;97.46;99293.52;104499;1259;72248;-57
2023/07/11 08:35:01;;;;;;;3.40;1.80;;;;;;;24.16;94.62;99293.73;104347;1263;60540;-57
2023/07/11 08:37:29;;;;;;;5.40;1.70;;;;;;;24.09;94.55;99292.85;104344;1257;60585;-57
2023/07/11 08:39:55;;;;;;;2.90;2.20;;;;;;;23.99;98.84;99292.44;104288;1257;74057;-56
2023/07/11 08:42:33;;;;;;;1.60;1.50;;;;;;;23.84;99.34;99293.80;104382;1263;69809;-57
2023/07/11 08:45:18;;;;;;;;;;;;;;;23.68;99.75;99296.67;104444;1262;72230;-57
2023/07/11 08:47:59;;;;;;;2.30;2.10;;;;;;;23.50;99.65;99293.73;104453;1260;60565;-56
2023/07/11 08:50:33;;;;;;;2.90;1.60;;;;;;;23.45;100.00;99291.35;104376;1254;60539;-56
2023/07/11 08:53:08;;;;;;;2.60;2.00;;;;;;;23.52;99.63;99289.95;104140;1261;73743;-57
2023/07/11 08:55:39;;;;;;;2.60;1.70;;;;;;;23.56;98.04;99286.33;104307;1258;70018;-57
2023/07/11 08:58:09;;;;;;;3.90;2.30;;;;;;;23.59;96.81;99276.72;104263;1266;71676;-56
2023/07/11 09:00:36;;;;;;;3.20;1.60;;;;;;;23.74;99.82;99274.93;104342;1267;59770;-56
2023/07/11 09:03:16;;;;;;;3.30;1.70;;;;;;;23.97;98.50;99277.13;104343;1259;60536;-56
2023/07/11 09:06:04;;;;;;;2.60;1.70;;;;;;;24.03;93.18;99276.98;104274;1259;74140;-56
2023/07/11 09:08:31;;;;;;;3.00;1.90;;;;;;;24.03;91.91;99276.24;104354;1256;69516;-57
2023/07/11 09:11:35;;;;;;;3.00;1.80;;;;;;;24.14;92.15;99276.26;105524;1254;72848;-57
2023/07/11 09:14:43;;;;;;;2.10;1.80;;;;;;;24.33;88.51;99274.95;107836;1254;60551;-57
2023/07/11 09:17:29;;;;;;;3.60;1.70;;;;;;;24.49;85.99;99269.45;104317;1257;60454;-56
2023/07/11 09:20:19;;;;;;;1.80;1.30;;;;;;;24.53;86.49;99276.98;104296;1259;73515;-56
2023/07/11 09:23:08;;;;;;;5.50;1.80;;;;;;;24.47;85.01;99272.88;104331;1276;69542;-56
2023/07/11 09:25:38;;;;;;;1.80;1.40;;;;;;;24.39;87.36;99271.58;104312;1257;72659;-56
2023/07/11 09:28:07;;;;;;;1.80;1.70;;;;;;;24.38;89.51;99272.91;104325;1270;60571;-55
2023/07/11 09:30:41;;;;;;;3.30;1.80;;;;;;;24.43;89.45;99273.11;104373;1255;60491;-57
2023/07/11 09:33:16;;;;;;;4.60;1.80;;;;;;;24.52;87.36;99271.89;104337;1257;73665;-56
2023/07/11 09:35:44;;;;;;;3.10;1.40;;;;;;;24.59;85.56;99273.30;104186;1260;70229;-56
2023/07/11 09:38:55;;;;;;;3.10;1.40;;;;;;;24.68;81.88;99266.93;104258;1275;73202;-56
2023/07/11 09:41:45;;;;;;;4.60;1.80;;;;;;;24.79;77.85;99263.77;103793;1264;61308;-58
2023/07/11 09:44:20;;;;;;;4.50;1.60;;;;;;;24.89;77.05;99256.00;104095;1254;60652;-56
2023/07/11 09:46:47;;;;;;;2.80;1.50;;;;;;;25.05;79.06;99257.13;104478;1257;74337;-56
2023/07/11 09:49:35;;;;;;;3.80;1.90;;;;;;;25.19;77.34;99256.00;104391;1269;70045;-56
2023/07/11 09:52:02;;;;;;;3.20;1.90;;;;;;;25.13;74.44;99261.27;104322;1253;72339;-56
2023/07/11 09:54:42;;;;;;;2.20;1.70;;;;;;;25.08;73.93;99262.09;104195;1257;60536;-57
2023/07/11 09:57:21;;;;;;;1.40;1.30;;;;;;;25.00;72.67;99258.79;104217;1272;60611;-59
2023/07/11 09:59:59;;;;;;;6.40;1.20;;;;;;;24.98;72.27;99266.05;104322;1259;74367;-57
2023/07/11 10:02:48;;;;;;;1.40;1.30;;;;;;;24.97;72.55;99261.13;104368;1271;70299;-57
2023/07/11 10:05:20;;;;;;;2.70;1.40;;;;;;;24.94;75.78;99264.80;104320;1257;72384;-57
2023/07/11 10:08:01;;;;;;;1.80;1.60;;;;;;;24.91;72.18;99263.02;104320;1257;60477;-57
2023/07/11 10:10:29;;;;;;;1.70;1.50;;;;;;;24.71;69.79;99263.88;104323;1257;60508;-56
2023/07/11 10:13:15;;;;;;;3.80;1.80;;;;;;;24.66;73.18;99266.39;104464;1257;74115;-58
2023/07/11 10:15:59;;;;;;;2.70;1.70;;;;;;;24.61;70.82;99266.55;104294;1254;70185;-56
2023/07/11 10:18:31;;;;;;;3.80;1.90;;;;;;;24.58;72.70;99267.09;104504;1255;72828;-57
2023/07/11 10:21:16;;;;;;;1.70;1.60;;;;;;;24.58;73.19;99268.19;107544;1254;60325;-57
2023/07/11 10:23:49;;;;;;;2.10;1.90;;;;;;;24.68;74.46;99262.77;108209;1256;59930;-58
2023/07/11 10:26:23;;;;;;;3.10;1.40;;;;;;;24.89;76.30;99262.10;107981;1254;73640;-57
2023/07/11 10:29:03;;;;;;;2.60;2.00;;;;;;;25.09;69.40;99259.59;105095;1257;70082;-57
2023/07/11 10:31:53;;;;;;;2.10;1.60;;;;;;;25.26;69.83;99249.32;104272;1263;73089;-58
2023/07/11 10:34:37;;;;;;;1.40;1.30;;;;;;;25.47;68.33;99257.20;104359;1266;60617;-57
2023/07/11 10:37:25;;;;;;;2.00;1.40;;;;;;;25.63;64.26;99249.84;104442;1254;60447;-57
2023/07/11 10:39:53;;;;;;;2.60;1.50;;;;;;;25.59;63.26;99251.29;104374;1259;73873;-57
2023/07/11 10:42:43;;;;;;;2.40;1.40;;;;;;;25.53;63.32;99253.13;104329;1254;69895;-58
2023/07/11 10:45:17;;;;;;;2.90;1.60;;;;;;;25.47;62.60;99252.36;104393;1254;72512;-57
2023/07/11 10:47:51;;;;;;;3.40;1.50;;;;;;;25.24;64.46;99247.40;104477;1257;60562;-57
2023/07/11 10:50:32;;;;;;;1.70;1.60;;;;;;;25.14;68.71;99248.84;104441;1260;60575;-57
2023/07/11 10:53:01;;;;;;;2.00;1.70;;;;;;;25.19;71.53;99248.10;104413;1259;74579;-58
2023/07/11 10:55:33;;;;;;;2.10;1.90;;;;;;;25.33;68.55;99248.88;104295;1258;70470;-58
2023/07/11 10:58:02;;;;;;;1.70;1.30;;;;;;;25.41;67.24;99245.14;104076;1255;73078;-58
2023/07/11 11:00:29;;;;;;;1.70;1.40;;;;;;;25.54;63.66;99241.95;104269;1257;60584;-55
2023/07/11 11:03:23;;;;;;;1.70;1.40;;;;;;;25.61;64.86;99241.70;104354;1257;60454;-55
2023/07/11 11:06:02;;;;;;;1.60;1.50;;;;;;;25.62;61.82;99239.91;104298;1269;74261;-56
2023/07/11 11:08:45;;;;;;;3.50;1.30;;;;;;;25.61;64.06;99238.56;104275;1261;69229;-58
2023/07/11 11:11:37;;;;;;;1.70;1.60;;;;;;;25.64;63.44;99238.59;104244;1256;73089;-58
2023/07/11 11:14:31;;;;;;;1.80;1.30;;;;;;;25.62;61.47;99235.80;104369;1254;60575;-58
2023/07/11 11:17:22;;;;;;;1.50;1.40;;;;;;;25.59;62.04;99235.02;106439;1256;60623;-56
2023/07/11 11:20:09;;;;;;;2.70;1.50;;;;;;;25.58;60.35;99234.27;104341;1262;74265;-55
2023/07/11 11:22:48;;;;;;;2.50;1.30;;;;;;;25.62;60.13;99234.57;104351;1254;70117;-58
2023/07/11 11:25:35;;;;;;;1.60;1.40;;;;;;;25.67;60.61;99230.77;104315;1277;71635;-56
2023/07/11 11:28:15;;;;;;;1.30;1.00;;;;;;;25.80;58.39;99229.29;104295;1257;60562;-56
2023/07/11 11:30:57;;;;;;;1.90;1.30;;;;;;;25.96;59.13;99226.22;104341;1266;60443;-56
2023/07/11 11:34:02;;;;;;;1.40;1.30;;;;;;;26.14;57.63;99218.88;104361;1254;72617;-56
2023/07/11 11:36:36;;;;;;;2.30;1.50;;;;;;;26.32;56.48;99217.35;104424;1254;69411;-57
2023/07/11 11:39:46;;;;;;;3.20;1.40;;;;;;;26.42;55.48;99221.50;104347;1260;73080;-55